Time;durP1;ratioP1;P1;durP2;ratioP2;P2;SDS_P1;SDS_P2;PMS_P1;PMS_P2;Temp;Humidity;BMP_temperature;BMP_pressure;BME280_temperature;BME280_humidity;BME280_pressure;Samples;Min_cycle;Max_cycle;Signal;HPM_P1;HPM_P2
2022/08/06 00:02:08;;;;;;;0.10;0.10;;;13.20;99.90;;;;;;5070711;28;20036;-83
2022/08/06 00:04:35;;;;;;;0.35;0.20;;;13.10;99.90;;;;;;5055928;28;20037;-86
2022/08/06 00:07:01;;;;;;;0.10;0.10;;;13.00;99.90;;;;;;5039620;28;20051;-84
2022/08/06 00:09:32;;;;;;;0.10;0.10;;;13.00;99.90;;;;;;5040209;28;20051;-84
2022/08/06 00:12:00;;;;;;;0.20;0.20;;;13.10;99.90;;;;;;5090344;28;20049;-84
2022/08/06 00:14:28;;;;;;;0.10;0.08;;;13.10;99.90;;;;;;5055729;28;20516;-86
2022/08/06 00:16:55;;;;;;;0.10;0.10;;;13.00;99.90;;;;;;5071961;28;20049;-85
2022/08/06 00:19:24;;;;;;;0.20;0.10;;;13.00;99.90;;;;;;5055691;28;20082;-84
2022/08/06 00:21:51;;;;;;;0.10;0.10;;;13.00;99.90;;;;;;5057592;28;20563;-83
2022/08/06 00:24:18;;;;;;;0.10;0.10;;;13.00;99.90;;;;;;5055692;28;20032;-84
2022/08/06 00:26:45;;;;;;;0.10;0.10;;;12.90;99.90;;;;;;5072021;28;20037;-85
2022/08/06 00:29:12;;;;;;;0.10;0.10;;;12.90;99.90;;;;;;5088609;28;20036;-85
2022/08/06 00:31:39;;;;;;;0.20;0.20;;;12.90;99.90;;;;;;5055255;28;20037;-84
2022/08/06 00:34:06;;;;;;;0.17;0.15;;;12.90;99.90;;;;;;5054914;28;20109;-84
2022/08/06 00:36:34;;;;;;;0.10;0.10;;;12.80;99.90;;;;;;5042802;28;20048;-84
2022/08/06 00:39:03;;;;;;;0.10;0.10;;;12.80;99.90;;;;;;5059152;28;20474;-84
2022/08/06 00:41:31;;;;;;;0.20;0.17;;;12.80;99.90;;;;;;5075358;28;20055;-85
2022/08/06 00:43:59;;;;;;;0.13;0.13;;;12.80;99.90;;;;;;5095057;28;20036;-85
2022/08/06 00:46:26;;;;;;;0.10;0.10;;;12.80;99.90;;;;;;5062281;28;20455;-85
2022/08/06 00:48:53;;;;;;;0.20;0.20;;;12.80;99.90;;;;;;5078968;28;20083;-85
2022/08/06 00:51:21;;;;;;;0.10;0.10;;;12.70;99.90;;;;;;5095476;28;20082;-85
2022/08/06 00:53:50;;;;;;;0.17;0.10;;;12.70;99.90;;;;;;5099384;28;20390;-85
2022/08/06 00:56:16;;;;;;;0.20;0.20;;;12.70;99.90;;;;;;5074454;28;20382;-85
2022/08/06 00:58:43;;;;;;;0.10;0.10;;;12.60;99.90;;;;;;5062767;28;20040;-84
2022/08/06 01:01:11;;;;;;;0.10;0.10;;;12.60;99.90;;;;;;5095597;28;20120;-84
2022/08/06 01:03:38;;;;;;;0.35;0.10;;;12.60;99.90;;;;;;5083789;28;20545;-85
2022/08/06 01:06:05;;;;;;;0.10;0.10;;;12.50;99.90;;;;;;5071701;28;20179;-85
2022/08/06 01:08:31;;;;;;;0.10;0.10;;;12.50;99.90;;;;;;5039285;28;20405;-85
2022/08/06 01:10:58;;;;;;;0.15;0.15;;;12.40;99.90;;;;;;5039355;28;20590;-85
2022/08/06 01:13:25;;;;;;;0.10;0.10;;;12.40;99.90;;;;;;5042312;28;20127;-85
2022/08/06 01:16:09;;;;;;;0.30;0.20;;;12.30;99.90;;;;;;5078727;28;20043;-85
2022/08/06 01:19:05;;;;;;;0.10;0.10;;;12.30;99.90;;;;;;5095042;28;20047;-84
2022/08/06 01:21:40;;;;;;;;;;;12.20;99.90;;;;;;5086123;28;20135;-84
2022/08/06 01:24:39;;;;;;;0.15;0.15;;;12.20;99.90;;;;;;5095366;28;19916;-85
2022/08/06 01:27:15;;;;;;;0.10;0.10;;;12.10;99.90;;;;;;5082815;28;20036;-85
2022/08/06 01:29:50;;;;;;;0.00;0.00;;;12.10;99.90;;;;;;5075177;28;20493;-84
2022/08/06 01:32:45;;;;;;;0.20;0.20;;;12.10;99.90;;;;;;5074898;28;20040;-83
2022/08/06 01:35:20;;;;;;;0.10;0.10;;;12.10;99.90;;;;;;5078916;28;20097;-84
2022/08/06 01:38:06;;;;;;;0.10;0.10;;;12.10;99.90;;;;;;5095552;28;20071;-84
2022/08/06 01:40:37;;;;;;;0.10;0.10;;;12.10;99.90;;;;;;5112082;28;20500;-84
2022/08/06 01:43:08;;;;;;;0.20;0.10;;;12.10;99.90;;;;;;5111152;28;20489;-84
2022/08/06 01:45:38;;;;;;;0.00;0.00;;;12.10;99.90;;;;;;5108345;28;20035;-86
2022/08/06 01:48:11;;;;;;;0.10;0.10;;;12.20;99.90;;;;;;5074548;28;20040;-85
2022/08/06 01:50:43;;;;;;;0.10;0.10;;;12.20;99.90;;;;;;5074906;28;20498;-84
2022/08/06 01:53:14;;;;;;;0.32;0.20;;;12.20;99.90;;;;;;5070737;28;20049;-85
2022/08/06 01:55:45;;;;;;;0.20;0.20;;;12.10;99.90;;;;;;5089923;28;20056;-84
2022/08/06 01:58:17;;;;;;;0.40;0.10;;;12.20;99.90;;;;;;5090870;28;20043;-84
2022/08/06 02:00:46;;;;;;;0.15;0.10;;;12.10;99.90;;;;;;5091176;28;20059;-85
2022/08/06 02:03:26;;;;;;;0.25;0.17;;;12.10;99.90;;;;;;5091322;28;20040;-84
2022/08/06 02:05:56;;;;;;;0.08;0.08;;;12.00;99.90;;;;;;5090723;28;20052;-84
2022/08/06 02:08:27;;;;;;;0.03;0.03;;;12.10;99.90;;;;;;5087898;28;20044;-85
2022/08/06 02:10:55;;;;;;;0.20;0.20;;;12.00;99.90;;;;;;5090992;28;20419;-85
2022/08/06 02:13:23;;;;;;;0.00;0.00;;;12.00;99.90;;;;;;5073747;28;20386;-84
2022/08/06 02:15:51;;;;;;;0.10;0.10;;;11.90;99.90;;;;;;5074749;28;20032;-85
2022/08/06 02:18:20;;;;;;;0.05;0.05;;;11.90;99.90;;;;;;5074272;28;20036;-84
2022/08/06 02:20:51;;;;;;;0.00;0.00;;;12.00;99.90;;;;;;5090905;28;20447;-84
2022/08/06 02:23:25;;;;;;;0.00;0.00;;;11.90;99.90;;;;;;5090091;28;20076;-85
2022/08/06 02:25:54;;;;;;;0.10;0.10;;;11.80;99.90;;;;;;5091087;28;20040;-85
2022/08/06 02:28:26;;;;;;;0.00;0.00;;;11.90;99.90;;;;;;5089529;28;20036;-85
2022/08/06 02:30:55;;;;;;;0.30;0.20;;;11.80;99.90;;;;;;5090554;28;20487;-84
2022/08/06 02:33:23;;;;;;;0.10;0.10;;;11.80;99.90;;;;;;5089634;28;20045;-85
2022/08/06 02:36:21;;;;;;;0.30;0.10;;;11.80;99.90;;;;;;5106930;28;20044;-86
2022/08/06 02:39:14;;;;;;;0.10;0.10;;;11.80;99.90;;;;;;5090106;28;20068;-84
2022/08/06 02:41:49;;;;;;;0.10;0.10;;;11.80;99.90;;;;;;5081864;28;20045;-85
2022/08/06 02:44:35;;;;;;;0.15;0.15;;;11.80;99.90;;;;;;5089737;28;20055;-85
2022/08/06 02:47:17;;;;;;;0.10;0.10;;;11.80;99.90;;;;;;5090305;28;20574;-84
2022/08/06 02:49:47;;;;;;;0.10;0.10;;;11.80;99.90;;;;;;5089640;28;20094;-84
2022/08/06 02:52:22;;;;;;;0.10;0.10;;;11.80;99.90;;;;;;5073911;28;20089;-85
2022/08/06 02:54:55;;;;;;;0.10;0.10;;;11.70;99.90;;;;;;5073289;28;20049;-84
2022/08/06 02:57:26;;;;;;;0.10;0.10;;;11.70;99.90;;;;;;5088801;28;20486;-84
2022/08/06 02:59:57;;;;;;;0.10;0.10;;;11.70;99.90;;;;;;5076404;28;20451;-85
2022/08/06 03:02:26;;;;;;;0.10;0.10;;;11.70;99.90;;;;;;5075918;28;20048;-84
2022/08/06 03:04:54;;;;;;;0.10;0.10;;;11.70;99.90;;;;;;5069367;28;20579;-85
2022/08/06 03:07:26;;;;;;;0.22;0.20;;;11.60;99.90;;;;;;5052849;28;20045;-84
2022/08/06 03:09:54;;;;;;;0.20;0.20;;;11.60;99.90;;;;;;5066081;28;20047;-85
2022/08/06 03:12:21;;;;;;;0.10;0.10;;;11.60;99.90;;;;;;5092885;28;20039;-85
2022/08/06 03:14:51;;;;;;;0.15;0.15;;;11.60;99.90;;;;;;5076345;28;20075;-83
2022/08/06 03:17:20;;;;;;;0.20;0.20;;;11.60;99.90;;;;;;5076524;28;20122;-84
2022/08/06 03:19:49;;;;;;;0.10;0.10;;;11.60;99.90;;;;;;5059402;28;20130;-83
2022/08/06 03:22:18;;;;;;;0.52;0.20;;;11.60;99.90;;;;;;5056826;28;20044;-84
2022/08/06 03:24:46;;;;;;;0.10;0.10;;;11.70;99.90;;;;;;5072799;28;20039;-85
2022/08/06 03:27:16;;;;;;;0.10;0.10;;;11.70;99.90;;;;;;5056860;28;20265;-84
2022/08/06 03:29:43;;;;;;;0.10;0.10;;;11.70;99.90;;;;;;5072741;28;20080;-85
2022/08/06 03:32:12;;;;;;;0.30;0.20;;;11.70;99.90;;;;;;5073183;28;20413;-85
2022/08/06 03:34:40;;;;;;;0.10;0.10;;;11.70;99.90;;;;;;5091879;28;20119;-85
2022/08/06 03:37:08;;;;;;;0.20;0.20;;;11.70;99.90;;;;;;5075901;28;20063;-84
2022/08/06 03:39:37;;;;;;;0.10;0.10;;;11.70;99.90;;;;;;5092053;28;20044;-86
2022/08/06 03:42:05;;;;;;;0.10;0.10;;;11.70;99.90;;;;;;5077470;28;20037;-84
2022/08/06 03:44:32;;;;;;;0.10;0.10;;;11.70;99.90;;;;;;5036465;28;20048;-83
2022/08/06 03:47:03;;;;;;;0.05;0.05;;;11.70;99.90;;;;;;5020118;28;20829;-86
2022/08/06 03:49:36;;;;;;;0.10;0.10;;;11.70;99.90;;;;;;5052691;28;20127;-84
2022/08/06 03:52:04;;;;;;;0.10;0.10;;;11.70;99.90;;;;;;5056649;28;20523;-84
2022/08/06 03:54:38;;;;;;;0.20;0.20;;;11.70;99.90;;;;;;5020479;28;20049;-84
2022/08/06 03:57:15;;;;;;;0.10;0.10;;;11.60;99.90;;;;;;5053166;28;20040;-86
2022/08/06 03:59:45;;;;;;;0.10;0.10;;;11.60;99.90;;;;;;5052407;28;20517;-86
2022/08/06 04:02:14;;;;;;;0.10;0.10;;;11.60;99.90;;;;;;5058042;28;20032;-85
2022/08/06 04:04:42;;;;;;;0.25;0.22;;;11.60;99.90;;;;;;5053364;28;20041;-86
2022/08/06 04:07:12;;;;;;;0.52;0.20;;;11.70;99.90;;;;;;5037109;28;20405;-86
2022/08/06 04:09:39;;;;;;;0.22;0.20;;;11.60;99.90;;;;;;5055059;28;20127;-86
2022/08/06 04:12:07;;;;;;;0.10;0.10;;;11.60;99.90;;;;;;5041005;28;20133;-84
2022/08/06 04:14:34;;;;;;;0.40;0.20;;;11.60;99.90;;;;;;5048119;28;20066;-85
2022/08/06 04:17:03;;;;;;;0.10;0.10;;;11.60;99.90;;;;;;5080710;28;20047;-84
2022/08/06 04:19:31;;;;;;;0.10;0.10;;;11.60;99.90;;;;;;5113408;28;20043;-84
2022/08/06 04:21:58;;;;;;;0.20;0.13;;;11.60;99.90;;;;;;5097420;28;20127;-85
2022/08/06 04:24:26;;;;;;;0.00;0.00;;;11.60;99.90;;;;;;5080617;28;20464;-85
2022/08/06 04:26:55;;;;;;;0.20;0.20;;;11.60;99.90;;;;;;5080092;28;20115;-84
2022/08/06 04:29:22;;;;;;;0.20;0.20;;;11.60;99.90;;;;;;5113745;28;20074;-84
2022/08/06 04:31:51;;;;;;;0.10;0.10;;;11.60;99.90;;;;;;5064092;28;20055;-84
2022/08/06 04:34:22;;;;;;;0.20;0.20;;;11.60;99.90;;;;;;5080387;28;20047;-85
2022/08/06 04:36:50;;;;;;;0.20;0.10;;;11.60;99.90;;;;;;5096657;28;20040;-86
2022/08/06 04:39:18;;;;;;;0.17;0.17;;;11.70;99.90;;;;;;5096932;28;20504;-84
2022/08/06 04:41:46;;;;;;;0.22;0.20;;;11.60;99.90;;;;;;5074991;28;20043;-84
2022/08/06 04:44:13;;;;;;;0.20;0.20;;;11.70;99.90;;;;;;5040863;28;20059;-84
2022/08/06 04:46:48;;;;;;;0.10;0.10;;;11.70;99.90;;;;;;5072678;28;20106;-83
2022/08/06 04:49:15;;;;;;;0.10;0.10;;;11.70;99.90;;;;;;5041658;28;20040;-84
2022/08/06 04:51:46;;;;;;;0.30;0.30;;;11.70;99.90;;;;;;5056273;28;20194;-85
2022/08/06 04:54:14;;;;;;;0.00;0.00;;;11.70;99.90;;;;;;5056407;28;20130;-84
2022/08/06 04:56:42;;;;;;;0.10;0.10;;;11.80;99.90;;;;;;5056260;28;20048;-84
2022/08/06 04:59:10;;;;;;;0.10;0.10;;;11.80;99.90;;;;;;5056317;28;20037;-83
2022/08/06 05:01:37;;;;;;;0.20;0.20;;;11.80;99.90;;;;;;5039467;28;20033;-86
2022/08/06 05:04:04;;;;;;;0.10;0.10;;;11.90;99.90;;;;;;5059119;28;20080;-83
2022/08/06 05:06:52;;;;;;;0.20;0.20;;;11.90;99.90;;;;;;5079694;28;20074;-84
2022/08/06 05:09:23;;;;;;;0.20;0.17;;;12.00;99.90;;;;;;5113069;28;20521;-85
2022/08/06 05:12:06;;;;;;;0.20;0.13;;;12.00;99.90;;;;;;5096219;28;20051;-84
2022/08/06 05:14:45;;;;;;;0.10;0.10;;;12.00;99.90;;;;;;5095499;28;20040;-84
2022/08/06 05:17:17;;;;;;;0.10;0.10;;;12.10;99.90;;;;;;5096696;28;20097;-86
2022/08/06 05:19:50;;;;;;;0.10;0.10;;;12.10;99.90;;;;;;5095925;28;20598;-85
2022/08/06 05:22:19;;;;;;;0.13;0.13;;;12.10;99.90;;;;;;5095428;28;20489;-85
2022/08/06 05:24:47;;;;;;;0.10;0.10;;;12.10;99.90;;;;;;5095634;28;20036;-84
2022/08/06 05:27:14;;;;;;;0.10;0.10;;;12.20;99.90;;;;;;5091241;28;20043;-85
2022/08/06 05:29:41;;;;;;;0.00;0.00;;;12.30;99.90;;;;;;5082075;28;20039;-84
2022/08/06 05:32:08;;;;;;;0.10;0.10;;;12.40;99.90;;;;;;5079537;28;20504;-84
2022/08/06 05:34:36;;;;;;;0.40;0.30;;;12.50;99.90;;;;;;5078487;28;20044;-84
2022/08/06 05:37:02;;;;;;;0.10;0.10;;;12.60;99.90;;;;;;5079258;28;20036;-84
2022/08/06 05:39:32;;;;;;;0.13;0.13;;;12.60;99.90;;;;;;5092928;28;20097;-85
2022/08/06 05:41:59;;;;;;;0.13;0.13;;;12.70;99.90;;;;;;5059138;28;20029;-85
2022/08/06 05:44:26;;;;;;;0.10;0.10;;;12.90;99.90;;;;;;5042646;28;20063;-84
2022/08/06 05:46:56;;;;;;;0.10;0.10;;;12.90;99.90;;;;;;5058356;28;20047;-86
2022/08/06 05:49:33;;;;;;;0.22;0.17;;;13.00;99.90;;;;;;5075139;28;20493;-85
2022/08/06 05:52:29;;;;;;;0.10;0.10;;;13.10;99.90;;;;;;5077694;28;20843;-85
2022/08/06 05:55:06;;;;;;;0.13;0.13;;;13.30;99.90;;;;;;5112284;28;20080;-84
2022/08/06 05:57:39;;;;;;;0.10;0.10;;;13.40;99.90;;;;;;5095265;28;20052;-84
2022/08/06 06:00:12;;;;;;;0.10;0.10;;;13.50;99.90;;;;;;5111886;28;20040;-84
2022/08/06 06:02:44;;;;;;;0.25;0.20;;;13.60;99.90;;;;;;5095213;28;20400;-84
2022/08/06 06:05:13;;;;;;;0.03;0.03;;;13.80;99.90;;;;;;5083505;28;20086;-86
2022/08/06 06:07:40;;;;;;;0.10;0.10;;;13.80;99.90;;;;;;5054872;28;20102;-84
2022/08/06 06:10:08;;;;;;;0.20;0.20;;;13.90;99.90;;;;;;5039063;28;20482;-84
2022/08/06 06:12:36;;;;;;;0.10;0.10;;;14.00;99.90;;;;;;5054827;28;20482;-84
2022/08/06 06:15:05;;;;;;;0.05;0.05;;;14.00;99.90;;;;;;5047966;28;20452;-84
2022/08/06 06:18:09;;;;;;;0.20;0.20;;;14.00;99.90;;;;;;5078791;28;20489;-84
2022/08/06 06:20:44;;;;;;;0.00;0.00;;;14.00;99.90;;;;;;5095002;28;20130;-86
2022/08/06 06:23:14;;;;;;;;;;;14.00;99.90;;;;;;5095215;28;20131;-84
2022/08/06 06:25:58;;;;;;;0.10;0.10;;;14.00;99.90;;;;;;5094126;28;19920;-86
2022/08/06 06:28:39;;;;;;;0.00;0.00;;;14.00;99.90;;;;;;5095131;28;20496;-84
2022/08/06 06:31:22;;;;;;;0.10;0.10;;;14.00;99.90;;;;;;5095128;28;20043;-85
2022/08/06 06:34:05;;;;;;;0.15;0.15;;;14.00;99.90;;;;;;5093082;28;20103;-85
2022/08/06 06:36:44;;;;;;;0.00;0.00;;;14.10;99.90;;;;;;5094851;28;20051;-86
2022/08/06 06:39:53;;;;;;;0.10;0.10;;;14.20;99.90;;;;;;5111617;28;20551;-84
2022/08/06 06:42:28;;;;;;;0.20;0.13;;;14.30;99.90;;;;;;5094055;28;20048;-85
2022/08/06 06:45:21;;;;;;;0.10;0.10;;;14.50;99.90;;;;;;5093884;28;20441;-84
2022/08/06 06:48:01;;;;;;;0.10;0.10;;;14.60;99.90;;;;;;5093906;28;20105;-84
2022/08/06 06:50:33;;;;;;;0.10;0.10;;;14.90;99.90;;;;;;5094335;28;20130;-85
2022/08/06 06:53:01;;;;;;;0.10;0.10;;;15.10;99.90;;;;;;5093967;28;20104;-85
2022/08/06 06:55:54;;;;;;;0.10;0.10;;;15.30;99.90;;;;;;5077805;28;20079;-85
2022/08/06 06:58:35;;;;;;;0.03;0.03;;;15.60;99.90;;;;;;5089388;28;20060;-86
2022/08/06 07:01:06;;;;;;;0.10;0.10;;;15.90;99.90;;;;;;5093556;28;20036;-85
2022/08/06 07:03:34;;;;;;;0.10;0.10;;;16.00;99.90;;;;;;5094283;28;20546;-84
2022/08/06 07:06:01;;;;;;;0.15;0.15;;;16.20;99.90;;;;;;5094211;28;20054;-85
2022/08/06 07:08:30;;;;;;;0.10;0.10;;;16.30;99.90;;;;;;5061366;28;20042;-84
2022/08/06 07:11:01;;;;;;;0.10;0.10;;;16.30;99.90;;;;;;5094505;28;20036;-85
2022/08/06 07:13:31;;;;;;;0.00;0.00;;;16.20;99.90;;;;;;5093455;28;20127;-84
2022/08/06 07:15:59;;;;;;;0.00;0.00;;;16.30;99.90;;;;;;5093345;28;20123;-86
2022/08/06 07:18:27;;;;;;;0.10;0.10;;;16.30;99.90;;;;;;5077578;28;20039;-85
2022/08/06 07:20:55;;;;;;;0.15;0.15;;;16.30;99.90;;;;;;5076778;28;20038;-84
2022/08/06 07:23:23;;;;;;;0.10;0.10;;;16.30;99.90;;;;;;5094500;28;20069;-85
2022/08/06 07:25:52;;;;;;;0.00;0.00;;;16.40;99.90;;;;;;5061360;28;20488;-86
2022/08/06 07:28:19;;;;;;;0.00;0.00;;;16.40;99.90;;;;;;5093581;28;20062;-84
2022/08/06 07:30:47;;;;;;;0.00;0.00;;;16.40;99.90;;;;;;5098789;28;20044;-83
2022/08/06 07:33:15;;;;;;;0.00;0.00;;;16.40;99.90;;;;;;5077471;28;20048;-86
2022/08/06 07:35:42;;;;;;;0.00;0.00;;;16.30;99.90;;;;;;5060995;28;20145;-84
2022/08/06 07:38:12;;;;;;;0.08;0.08;;;16.20;99.90;;;;;;5110170;28;20374;-84
2022/08/06 07:40:47;;;;;;;0.10;0.10;;;16.20;99.90;;;;;;5089825;28;20036;-85
2022/08/06 07:43:19;;;;;;;0.15;0.10;;;16.20;99.90;;;;;;5089683;28;20740;-84
2022/08/06 07:45:48;;;;;;;0.08;0.08;;;16.10;99.90;;;;;;5073057;28;20044;-84
2022/08/06 07:48:19;;;;;;;0.43;0.20;;;16.10;99.90;;;;;;5072996;28;20588;-85
2022/08/06 07:50:49;;;;;;;0.03;0.03;;;16.20;99.90;;;;;;5073295;28;20040;-84
2022/08/06 07:53:17;;;;;;;0.00;0.00;;;16.30;99.90;;;;;;5075454;28;20044;-84
2022/08/06 07:55:45;;;;;;;0.10;0.10;;;16.40;99.90;;;;;;5057162;28;20486;-85
2022/08/06 07:58:12;;;;;;;0.17;0.17;;;16.60;99.90;;;;;;5073053;28;20047;-84
2022/08/06 08:00:40;;;;;;;0.00;0.00;;;16.70;99.90;;;;;;5057076;28;20066;-84
2022/08/06 08:08:42;;;;;;;2.00;0.25;;;17.10;99.90;;;;;;5061688;28;20464;-85
2022/08/06 08:11:09;;;;;;;0.08;0.08;;;17.20;99.90;;;;;;5072556;28;20094;-85
2022/08/06 08:13:37;;;;;;;0.00;0.00;;;17.30;99.90;;;;;;5040486;28;20045;-85
2022/08/06 08:16:06;;;;;;;0.00;0.00;;;17.40;99.90;;;;;;5073270;28;20094;-85
2022/08/06 08:18:33;;;;;;;0.10;0.10;;;17.60;99.90;;;;;;5058429;28;20036;-85
2022/08/06 08:21:01;;;;;;;0.03;0.03;;;17.60;99.90;;;;;;5039943;28;20051;-84
2022/08/06 08:23:32;;;;;;;0.10;0.10;;;17.80;99.90;;;;;;5056863;28;20128;-85
2022/08/06 08:26:02;;;;;;;0.17;0.10;;;18.00;99.90;;;;;;5072968;28;20055;-84
2022/08/06 08:28:30;;;;;;;0.03;0.03;;;18.10;99.90;;;;;;5073039;28;20045;-85
2022/08/06 08:31:08;;;;;;;0.22;0.10;;;18.30;99.90;;;;;;5040081;28;20045;-85
2022/08/06 08:33:35;;;;;;;0.03;0.03;;;18.50;99.90;;;;;;5072377;28;20096;-85
2022/08/06 08:36:04;;;;;;;0.00;0.00;;;18.60;99.90;;;;;;5059364;28;20408;-85
2022/08/06 08:38:33;;;;;;;0.10;0.10;;;18.60;99.90;;;;;;5058913;28;20036;-84
2022/08/06 08:41:04;;;;;;;0.10;0.10;;;18.60;99.90;;;;;;5072557;28;20170;-85
2022/08/06 08:43:41;;;;;;;0.10;0.10;;;18.60;99.90;;;;;;5073641;28;20048;-85
2022/08/06 08:46:09;;;;;;;0.08;0.08;;;18.60;99.90;;;;;;5109139;28;20106;-85
2022/08/06 08:48:37;;;;;;;0.10;0.10;;;18.90;99.90;;;;;;5076014;28;20044;-85
2022/08/06 08:51:05;;;;;;;0.28;0.10;;;19.20;99.90;;;;;;5092011;28;20632;-84
2022/08/06 08:53:43;;;;;;;0.00;0.00;;;19.30;99.90;;;;;;5092478;28;20055;-86
2022/08/06 08:56:13;;;;;;;0.05;0.05;;;19.40;99.90;;;;;;5093863;28;20082;-85
2022/08/06 08:58:41;;;;;;;0.10;0.10;;;19.10;99.90;;;;;;5111798;28;20035;-86
2022/08/06 09:01:08;;;;;;;0.45;0.10;;;19.00;99.90;;;;;;5079549;28;20511;-84
2022/08/06 09:03:37;;;;;;;0.00;0.00;;;18.70;99.90;;;;;;5063646;28;20040;-85
2022/08/06 09:06:06;;;;;;;0.10;0.10;;;18.60;99.90;;;;;;5096055;28;20385;-85
2022/08/06 09:08:33;;;;;;;0.17;0.10;;;18.60;99.90;;;;;;5096713;28;20044;-85
2022/08/06 09:11:00;;;;;;;0.00;0.00;;;18.40;99.90;;;;;;5096077;28;20065;-84
2022/08/06 09:13:27;;;;;;;0.10;0.10;;;18.40;99.90;;;;;;5079738;28;20036;-84
2022/08/06 09:15:55;;;;;;;0.10;0.10;;;18.40;99.90;;;;;;5113080;28;20038;-85
2022/08/06 09:18:24;;;;;;;0.10;0.10;;;18.40;99.90;;;;;;5079340;28;20071;-85
2022/08/06 09:20:51;;;;;;;0.00;0.00;;;18.30;99.90;;;;;;5096158;28;20051;-84
2022/08/06 09:23:18;;;;;;;0.08;0.08;;;18.50;99.90;;;;;;5077218;28;20124;-84
2022/08/06 09:25:47;;;;;;;0.20;0.10;;;18.80;99.90;;;;;;5056123;28;20041;-85
2022/08/06 09:28:35;;;;;;;0.10;0.10;;;19.00;99.90;;;;;;5055775;28;20417;-85
2022/08/06 09:31:11;;;;;;;0.32;0.15;;;19.20;99.90;;;;;;5060086;28;20044;-84
2022/08/06 09:33:55;;;;;;;0.08;0.08;;;19.30;99.90;;;;;;5072219;28;20043;-84
2022/08/06 09:36:22;;;;;;;0.10;0.10;;;19.30;99.90;;;;;;5069663;28;20029;-84
2022/08/06 09:38:52;;;;;;;0.20;0.20;;;19.50;99.90;;;;;;5055678;28;20087;-84
2022/08/06 09:41:22;;;;;;;0.00;0.00;;;19.60;99.90;;;;;;5055493;28;20588;-85
2022/08/06 09:43:51;;;;;;;0.10;0.10;;;19.80;99.90;;;;;;5055326;28;20052;-84
2022/08/06 09:46:37;;;;;;;0.00;0.00;;;20.10;99.90;;;;;;5055494;28;20047;-85
2022/08/06 09:49:04;;;;;;;;;;;19.90;99.90;;;;;;5072170;28;20099;-85
2022/08/06 09:51:34;;;;;;;0.03;0.03;;;19.60;99.90;;;;;;5071836;28;19917;-85
2022/08/06 09:54:03;;;;;;;0.10;0.10;;;19.50;99.90;;;;;;5023348;28;20110;-85
2022/08/06 09:56:30;;;;;;;0.10;0.10;;;19.20;99.90;;;;;;5038774;28;20040;-85
2022/08/06 09:59:08;;;;;;;0.00;0.00;;;19.00;99.90;;;;;;5039044;28;20486;-84
2022/08/06 10:01:45;;;;;;;0.10;0.00;;;19.00;99.90;;;;;;5093446;28;20036;-85
2022/08/06 10:04:26;;;;;;;0.10;0.10;;;18.90;99.90;;;;;;5094958;28;20055;-85
2022/08/06 10:06:56;;;;;;;0.20;0.20;;;18.80;99.90;;;;;;5094728;28;20090;-85
2022/08/06 10:09:24;;;;;;;0.00;0.00;;;18.80;99.90;;;;;;5094971;28;20073;-84
2022/08/06 10:11:51;;;;;;;0.15;0.10;;;18.80;99.90;;;;;;5094376;28;20070;-84
2022/08/06 10:14:25;;;;;;;0.10;0.10;;;18.80;99.90;;;;;;5057951;28;20127;-84
2022/08/06 10:17:05;;;;;;;0.22;0.22;;;19.00;99.90;;;;;;5091560;28;20043;-85
2022/08/06 10:19:31;;;;;;;0.08;0.05;;;19.20;99.90;;;;;;5074861;28;20074;-85
2022/08/06 10:22:10;;;;;;;0.13;0.13;;;19.40;99.90;;;;;;5041750;28;20548;-84
2022/08/06 10:24:41;;;;;;;0.10;0.10;;;19.80;99.90;;;;;;5077096;28;20040;-85
2022/08/06 10:27:10;;;;;;;0.45;0.22;;;20.10;99.90;;;;;;5111445;28;20128;-85
2022/08/06 10:29:50;;;;;;;0.35;0.20;;;20.30;99.90;;;;;;5094706;28;20040;-85
2022/08/06 10:32:22;;;;;;;0.10;0.08;;;20.30;99.90;;;;;;5094407;28;20090;-84
2022/08/06 10:34:53;;;;;;;0.38;0.22;;;20.30;99.90;;;;;;5094483;28;20044;-84
2022/08/06 10:37:20;;;;;;;0.13;0.13;;;20.10;99.90;;;;;;5090885;28;20036;-84
2022/08/06 10:39:52;;;;;;;0.00;0.00;;;20.00;99.90;;;;;;5041801;28;20485;-85
2022/08/06 10:42:20;;;;;;;0.13;0.13;;;19.80;99.90;;;;;;5074042;28;20178;-84
2022/08/06 10:44:48;;;;;;;0.05;0.05;;;19.70;99.90;;;;;;5058171;28;20135;-85
2022/08/06 10:47:15;;;;;;;0.10;0.10;;;19.60;99.90;;;;;;5057537;28;20059;-85
2022/08/06 10:49:43;;;;;;;0.05;0.05;;;19.60;99.90;;;;;;5060763;28;20040;-85
2022/08/06 10:52:12;;;;;;;0.10;0.10;;;19.60;99.90;;;;;;5077362;28;20086;-85
2022/08/06 10:54:40;;;;;;;0.10;0.10;;;19.80;99.90;;;;;;5093706;28;20516;-85
2022/08/06 10:57:12;;;;;;;0.15;0.10;;;20.10;99.90;;;;;;5094383;28;20036;-85
2022/08/06 10:59:43;;;;;;;0.10;0.10;;;20.40;99.90;;;;;;5094005;28;20067;-85
2022/08/06 11:02:41;;;;;;;0.20;0.13;;;20.70;99.90;;;;;;5086574;28;20115;-85
2022/08/06 11:05:13;;;;;;;0.28;0.10;;;20.80;99.30;;;;;;5054155;28;20047;-84
2022/08/06 11:08:01;;;;;;;0.30;0.20;;;21.20;99.90;;;;;;5053659;28;20056;-85
2022/08/06 11:10:37;;;;;;;0.10;0.10;;;21.10;99.90;;;;;;5054131;28;20044;-84
2022/08/06 11:13:14;;;;;;;0.22;0.10;;;20.90;99.90;;;;;;5053779;28;20049;-84
2022/08/06 11:15:44;;;;;;;0.10;0.10;;;20.80;99.90;;;;;;5062865;28;20139;-85
2022/08/06 11:18:12;;;;;;;0.10;0.10;;;20.50;99.90;;;;;;5037894;28;20032;-85
2022/08/06 11:20:42;;;;;;;0.20;0.10;;;20.30;98.00;;;;;;5053192;28;20382;-85
2022/08/06 11:23:12;;;;;;;0.47;0.28;;;20.20;99.90;;;;;;5053664;28;20064;-85
2022/08/06 11:25:43;;;;;;;0.30;0.20;;;20.10;97.30;;;;;;5053475;28;20497;-84
2022/08/06 11:28:11;;;;;;;0.22;0.22;;;20.20;97.60;;;;;;5076572;28;20891;-84
2022/08/06 11:30:42;;;;;;;0.25;0.25;;;20.40;98.40;;;;;;5076647;28;20045;-85
2022/08/06 11:33:10;;;;;;;0.20;0.10;;;21.10;98.70;;;;;;5093599;28;20113;-85
2022/08/06 11:35:37;;;;;;;0.20;0.17;;;20.90;97.90;;;;;;5060150;28;20417;-85
2022/08/06 11:38:06;;;;;;;0.20;0.17;;;20.90;99.60;;;;;;5093321;28;20039;-84
2022/08/06 11:40:56;;;;;;;0.20;0.10;;;21.00;98.30;;;;;;5076268;28;20242;-85
2022/08/06 11:43:41;;;;;;;0.10;0.08;;;21.20;99.10;;;;;;5036898;28;20037;-84
2022/08/06 11:46:27;;;;;;;0.43;0.30;;;21.30;98.50;;;;;;5053493;28;20127;-84
2022/08/06 11:48:59;;;;;;;0.20;0.20;;;21.30;98.80;;;;;;5053202;28;20053;-85
2022/08/06 11:51:49;;;;;;;0.30;0.13;;;21.50;99.40;;;;;;5056291;28;20035;-85
2022/08/06 11:54:19;;;;;;;0.28;0.20;;;21.60;97.10;;;;;;5072685;28;20050;-85
2022/08/06 11:57:01;;;;;;;0.47;0.30;;;21.50;96.80;;;;;;5072801;28;20123;-84
2022/08/06 11:59:49;;;;;;;0.30;0.10;;;21.30;96.80;;;;;;5072908;28;20044;-85
2022/08/06 12:02:37;;;;;;;0.35;0.20;;;21.20;97.50;;;;;;5072955;28;20068;-84
2022/08/06 12:05:04;;;;;;;0.08;0.08;;;21.30;97.60;;;;;;5086133;28;20496;-85
2022/08/06 12:07:36;;;;;;;0.25;0.20;;;21.50;97.00;;;;;;5076387;28;20120;-85
2022/08/06 12:10:06;;;;;;;0.73;0.38;;;21.60;98.20;;;;;;5077260;28;20047;-86
2022/08/06 12:12:37;;;;;;;0.65;0.20;;;21.80;97.30;;;;;;5092759;28;20405;-85
2022/08/06 12:15:12;;;;;;;0.73;0.40;;;22.00;98.80;;;;;;5093007;28;20130;-85
2022/08/06 12:17:58;;;;;;;0.68;0.40;;;22.20;97.50;;;;;;5092332;28;20123;-84
2022/08/06 12:20:41;;;;;;;0.43;0.28;;;22.40;96.90;;;;;;5109392;28;20485;-85
2022/08/06 12:23:11;;;;;;;0.32;0.30;;;22.40;95.60;;;;;;5075130;28;20037;-85
2022/08/06 12:25:47;;;;;;;0.52;0.40;;;22.20;95.20;;;;;;5052461;28;20037;-84
2022/08/06 12:28:17;;;;;;;0.35;0.30;;;21.90;94.90;;;;;;5036618;28;20041;-84
2022/08/06 12:30:49;;;;;;;0.20;0.20;;;21.90;96.40;;;;;;5055145;28;20075;-85
2022/08/06 12:33:17;;;;;;;0.25;0.20;;;21.90;97.80;;;;;;5056795;28;20045;-85
2022/08/06 12:36:01;;;;;;;0.32;0.30;;;21.70;96.70;;;;;;5040410;28;20091;-85
2022/08/06 12:38:31;;;;;;;0.63;0.30;;;21.50;97.50;;;;;;5039968;28;20044;-85
2022/08/06 12:40:59;;;;;;;0.40;0.30;;;21.50;97.40;;;;;;5056670;28;20100;-85
2022/08/06 12:43:31;;;;;;;0.43;0.30;;;21.70;97.80;;;;;;5056329;28;20041;-85
2022/08/06 12:46:03;;;;;;;0.50;0.17;;;21.90;96.40;;;;;;5040505;28;20140;-85
2022/08/06 12:48:31;;;;;;;0.38;0.30;;;22.00;94.70;;;;;;5040236;28;20127;-84
2022/08/06 12:51:13;;;;;;;0.20;0.20;;;22.00;94.90;;;;;;5040253;28;20088;-85
2022/08/06 12:53:58;;;;;;;0.30;0.30;;;22.20;95.40;;;;;;5055778;28;20049;-85
2022/08/06 12:56:27;;;;;;;0.55;0.30;;;22.50;96.00;;;;;;5072783;28;20048;-84
2022/08/06 12:58:54;;;;;;;0.93;0.30;;;22.50;95.30;;;;;;5056006;28;20098;-85
2022/08/06 13:01:24;;;;;;;0.30;0.20;;;22.70;96.00;;;;;;5040203;28;20128;-85
2022/08/06 13:03:55;;;;;;;0.50;0.38;;;22.70;95.90;;;;;;5039952;28;20044;-85
2022/08/06 13:06:24;;;;;;;0.38;0.30;;;22.80;95.70;;;;;;5057760;28;20048;-85
2022/08/06 13:08:52;;;;;;;0.65;0.47;;;22.70;96.80;;;;;;5112683;28;20040;-85
2022/08/06 13:11:19;;;;;;;0.63;0.52;;;22.20;95.70;;;;;;5096502;28;20040;-85
2022/08/06 13:13:49;;;;;;;0.70;0.50;;;21.90;96.50;;;;;;5112423;28;20044;-85
2022/08/06 13:16:17;;;;;;;0.73;0.50;;;21.80;96.20;;;;;;5112610;28;20044;-84
2022/08/06 13:19:13;;;;;;;0.70;0.50;;;21.60;97.00;;;;;;5063471;28;20040;-85